sensor_id;sensor_type;location;lat;lon;timestamp;pressure;altitude;pressure_sealevel;temperature;humidity
77159;BME280;66129;45.890;13.714;2023-02-23T00:01:21;100982.97;;;7.96;82.70
77159;BME280;66129;45.890;13.714;2023-02-23T00:03:49;101018.56;;;8.16;82.95
77159;BME280;66129;45.890;13.714;2023-02-23T00:06:16;100957.88;;;7.83;82.47
77159;BME280;66129;45.890;13.714;2023-02-23T00:08:42;100998.03;;;8.13;82.37
77159;BME280;66129;45.890;13.714;2023-02-23T00:11:09;101027.41;;;8.26;83.05
77159;BME280;66129;45.890;13.714;2023-02-23T00:13:39;100974.59;;;8.00;82.69
77159;BME280;66129;45.890;13.714;2023-02-23T00:16:12;101010.03;;;8.41;82.50
77159;BME280;66129;45.890;13.714;2023-02-23T00:18:42;101010.13;;;8.44;82.31
77159;BME280;66129;45.890;13.714;2023-02-23T00:21:18;101010.34;;;8.25;82.62
77159;BME280;66129;45.890;13.714;2023-02-23T00:23:58;100973.63;;;7.96;83.39
77159;BME280;66129;45.890;13.714;2023-02-23T00:26:25;101006.81;;;7.96;83.99
77159;BME280;66129;45.890;13.714;2023-02-23T00:28:54;100970.22;;;7.71;84.29
77159;BME280;66129;45.890;13.714;2023-02-23T00:31:21;101018.75;;;7.97;84.82
77159;BME280;66129;45.890;13.714;2023-02-23T00:33:50;100942.00;;;7.67;84.25
77159;BME280;66129;45.890;13.714;2023-02-23T00:36:19;100977.03;;;7.97;83.47
77159;BME280;66129;45.890;13.714;2023-02-23T00:38:55;101020.50;;;8.22;82.51
77159;BME280;66129;45.890;13.714;2023-02-23T00:41:24;100985.69;;;8.00;83.88
77159;BME280;66129;45.890;13.714;2023-02-23T00:43:53;100976.06;;;7.92;83.67
77159;BME280;66129;45.890;13.714;2023-02-23T00:46:24;100955.56;;;7.66;84.25
77159;BME280;66129;45.890;13.714;2023-02-23T00:48:52;100975.66;;;7.81;84.59
77159;BME280;66129;45.890;13.714;2023-02-23T00:51:20;100923.25;;;7.41;84.46
77159;BME280;66129;45.890;13.714;2023-02-23T00:53:46;100997.88;;;7.84;85.33
77159;BME280;66129;45.890;13.714;2023-02-23T00:56:13;101015.69;;;7.82;85.86
77159;BME280;66129;45.890;13.714;2023-02-23T00:58:39;101017.97;;;7.75;85.73
77159;BME280;66129;45.890;13.714;2023-02-23T01:01:11;100952.44;;;7.49;85.18
77159;BME280;66129;45.890;13.714;2023-02-23T01:03:39;100973.75;;;7.74;85.26
77159;BME280;66129;45.890;13.714;2023-02-23T01:06:07;101008.41;;;7.93;85.12
77159;BME280;66129;45.890;13.714;2023-02-23T01:08:35;100951.47;;;7.46;85.35
77159;BME280;66129;45.890;13.714;2023-02-23T01:11:09;100952.00;;;7.37;85.77
77159;BME280;66129;45.890;13.714;2023-02-23T01:13:36;100982.50;;;7.58;86.21
77159;BME280;66129;45.890;13.714;2023-02-23T01:16:06;100949.84;;;7.48;86.06
77159;BME280;66129;45.890;13.714;2023-02-23T01:18:33;101004.38;;;7.74;85.81
77159;BME280;66129;45.890;13.714;2023-02-23T01:21:00;100991.13;;;7.61;85.78
77159;BME280;66129;45.890;13.714;2023-02-23T01:23:25;101021.81;;;7.87;85.79
77159;BME280;66129;45.890;13.714;2023-02-23T01:25:54;100981.78;;;7.62;86.06
77159;BME280;66129;45.890;13.714;2023-02-23T01:28:19;101013.88;;;7.78;85.55
77159;BME280;66129;45.890;13.714;2023-02-23T01:30:45;101021.66;;;7.83;85.69
77159;BME280;66129;45.890;13.714;2023-02-23T01:33:13;101014.94;;;7.85;85.68
77159;BME280;66129;45.890;13.714;2023-02-23T01:35:42;101013.88;;;7.78;86.36
77159;BME280;66129;45.890;13.714;2023-02-23T01:38:09;100976.09;;;7.45;86.24
77159;BME280;66129;45.890;13.714;2023-02-23T01:40:34;100955.59;;;7.42;85.91
77159;BME280;66129;45.890;13.714;2023-02-23T01:43:15;101004.63;;;7.82;86.20
77159;BME280;66129;45.890;13.714;2023-02-23T01:45:43;100928.47;;;7.44;85.71
77159;BME280;66129;45.890;13.714;2023-02-23T01:48:17;100963.81;;;7.59;85.55
77159;BME280;66129;45.890;13.714;2023-02-23T01:50:55;100929.78;;;7.33;85.55
77159;BME280;66129;45.890;13.714;2023-02-23T01:53:22;101006.34;;;7.83;85.78
77159;BME280;66129;45.890;13.714;2023-02-23T01:55:56;100944.31;;;7.59;85.47
77159;BME280;66129;45.890;13.714;2023-02-23T01:58:24;101002.63;;;7.98;85.53
77159;BME280;66129;45.890;13.714;2023-02-23T02:00:54;100947.13;;;7.68;84.81
77159;BME280;66129;45.890;13.714;2023-02-23T02:03:55;100908.75;;;7.40;85.09
77159;BME280;66129;45.890;13.714;2023-02-23T02:06:24;100947.69;;;7.60;85.43
77159;BME280;66129;45.890;13.714;2023-02-23T02:08:55;100914.78;;;7.42;85.27
77159;BME280;66129;45.890;13.714;2023-02-23T02:11:22;100988.84;;;7.93;85.53
77159;BME280;66129;45.890;13.714;2023-02-23T02:14:13;100977.22;;;8.01;84.86
77159;BME280;66129;45.890;13.714;2023-02-23T02:25:38;100892.66;;;7.41;85.48
77159;BME280;66129;45.890;13.714;2023-02-23T02:28:29;100986.25;;;7.92;85.25
77159;BME280;66129;45.890;13.714;2023-02-23T02:34:21;100977.56;;;7.87;85.43
77159;BME280;66129;45.890;13.714;2023-02-23T02:39:25;100977.41;;;7.82;85.71
77159;BME280;66129;45.890;13.714;2023-02-23T02:47:42;100904.69;;;7.20;86.33
77159;BME280;66129;45.890;13.714;2023-02-23T02:50:18;100948.13;;;7.47;86.11
77159;BME280;66129;45.890;13.714;2023-02-23T02:53:07;100964.63;;;7.82;85.86
77159;BME280;66129;45.890;13.714;2023-02-23T02:55:34;100971.69;;;7.89;85.53
77159;BME280;66129;45.890;13.714;2023-02-23T02:58:04;100981.59;;;7.80;86.38
77159;BME280;66129;45.890;13.714;2023-02-23T03:00:40;100895.44;;;7.24;86.39
77159;BME280;66129;45.890;13.714;2023-02-23T03:06:19;100900.16;;;7.37;85.81
77159;BME280;66129;45.890;13.714;2023-02-23T03:09:52;100974.81;;;7.81;85.72
77159;BME280;66129;45.890;13.714;2023-02-23T03:15:12;100989.97;;;7.76;86.17
77159;BME280;66129;45.890;13.714;2023-02-23T03:21:25;100976.44;;;7.79;85.82
77159;BME280;66129;45.890;13.714;2023-02-23T03:24:37;100943.97;;;7.50;85.69
77159;BME280;66129;45.890;13.714;2023-02-23T03:27:51;100937.13;;;7.49;85.65
77159;BME280;66129;45.890;13.714;2023-02-23T03:30:47;100923.81;;;7.33;86.17
77159;BME280;66129;45.890;13.714;2023-02-23T03:33:38;100965.41;;;7.55;86.09
77159;BME280;66129;45.890;13.714;2023-02-23T03:36:26;100988.13;;;7.72;85.89
77159;BME280;66129;45.890;13.714;2023-02-23T03:39:29;100988.28;;;7.77;85.44
77159;BME280;66129;45.890;13.714;2023-02-23T03:42:18;100992.56;;;7.78;85.56
77159;BME280;66129;45.890;13.714;2023-02-23T03:45:08;100936.28;;;7.49;85.89
77159;BME280;66129;45.890;13.714;2023-02-23T03:47:55;100964.72;;;7.59;85.29
77159;BME280;66129;45.890;13.714;2023-02-23T03:50:45;100937.25;;;7.52;85.63
77159;BME280;66129;45.890;13.714;2023-02-23T03:54:01;100990.09;;;7.79;85.38
77159;BME280;66129;45.890;13.714;2023-02-23T03:56:51;100944.22;;;7.58;85.40
77159;BME280;66129;45.890;13.714;2023-02-23T03:59:46;100963.25;;;7.67;85.23
77159;BME280;66129;45.890;13.714;2023-02-23T04:02:33;100941.47;;;7.52;85.61
77159;BME280;66129;45.890;13.714;2023-02-23T04:05:20;100932.50;;;7.38;86.20
77159;BME280;66129;45.890;13.714;2023-02-23T04:08:08;100988.13;;;7.72;86.23
77159;BME280;66129;45.890;13.714;2023-02-23T04:10:59;101000.06;;;7.73;86.56
77159;BME280;66129;45.890;13.714;2023-02-23T04:13:47;100936.66;;;7.36;86.68
77159;BME280;66129;45.890;13.714;2023-02-23T04:16:17;100993.94;;;7.68;87.19
77159;BME280;66129;45.890;13.714;2023-02-23T04:18:43;100978.78;;;7.73;86.11
77159;BME280;66129;45.890;13.714;2023-02-23T04:21:08;100998.72;;;7.84;85.57
77159;BME280;66129;45.890;13.714;2023-02-23T04:23:34;100937.63;;;7.39;86.92
77159;BME280;66129;45.890;13.714;2023-02-23T04:26:01;100956.47;;;7.43;87.25
77159;BME280;66129;45.890;13.714;2023-02-23T04:28:27;101001.19;;;7.81;86.18
77159;BME280;66129;45.890;13.714;2023-02-23T04:30:53;101005.75;;;7.90;85.79
77159;BME280;66129;45.890;13.714;2023-02-23T04:33:19;100998.72;;;7.84;85.57
77159;BME280;66129;45.890;13.714;2023-02-23T04:35:46;100967.78;;;7.51;86.37
77159;BME280;66129;45.890;13.714;2023-02-23T04:38:12;101001.81;;;7.74;86.27
77159;BME280;66129;45.890;13.714;2023-02-23T04:40:38;100935.84;;;7.37;86.99
77159;BME280;66129;45.890;13.714;2023-02-23T04:43:03;100944.94;;;7.54;86.27
77159;BME280;66129;45.890;13.714;2023-02-23T04:45:29;100945.81;;;7.54;85.93
77159;BME280;66129;45.890;13.714;2023-02-23T04:47:54;100971.69;;;7.65;85.35
77159;BME280;66129;45.890;13.714;2023-02-23T04:50:20;100916.31;;;7.37;85.36
77159;BME280;66129;45.890;13.714;2023-02-23T04:52:46;100936.06;;;7.43;85.44
77159;BME280;66129;45.890;13.714;2023-02-23T04:55:17;100948.13;;;7.47;86.75
77159;BME280;66129;45.890;13.714;2023-02-23T04:57:44;100961.94;;;7.53;86.49
77159;BME280;66129;45.890;13.714;2023-02-23T05:00:10;100979.22;;;7.62;86.54
77159;BME280;66129;45.890;13.714;2023-02-23T05:02:38;100922.06;;;7.32;86.38
77159;BME280;66129;45.890;13.714;2023-02-23T05:05:04;100986.69;;;7.80;86.11
77159;BME280;66129;45.890;13.714;2023-02-23T05:07:30;100929.25;;;7.42;86.09
77159;BME280;66129;45.890;13.714;2023-02-23T05:09:55;100970.22;;;7.71;86.48
77159;BME280;66129;45.890;13.714;2023-02-23T05:12:21;100958.56;;;7.54;86.73
77159;BME280;66129;45.890;13.714;2023-02-23T05:14:46;100911.63;;;7.24;86.80
77159;BME280;66129;45.890;13.714;2023-02-23T05:17:12;100952.44;;;7.49;86.42
77159;BME280;66129;45.890;13.714;2023-02-23T05:19:37;100977.22;;;7.76;85.41
77159;BME280;66129;45.890;13.714;2023-02-23T05:22:03;100931.34;;;7.53;85.41
77159;BME280;66129;45.890;13.714;2023-02-23T05:24:28;100984.13;;;7.80;86.27
77159;BME280;66129;45.890;13.714;2023-02-23T05:26:54;100977.97;;;7.74;85.40
77159;BME280;66129;45.890;13.714;2023-02-23T05:29:19;100979.59;;;7.72;85.97
77159;BME280;66129;45.890;13.714;2023-02-23T05:31:48;100943.34;;;7.32;87.06
77159;BME280;66129;45.890;13.714;2023-02-23T05:34:14;100925.22;;;7.25;86.61
77159;BME280;66129;45.890;13.714;2023-02-23T05:36:55;100907.25;;;7.22;86.41
77159;BME280;66129;45.890;13.714;2023-02-23T05:39:26;100910.59;;;7.19;87.14
77159;BME280;66129;45.890;13.714;2023-02-23T05:41:55;100959.13;;;7.46;86.73
77159;BME280;66129;45.890;13.714;2023-02-23T05:44:27;100991.50;;;7.71;86.70
77159;BME280;66129;45.890;13.714;2023-02-23T05:46:53;100935.91;;;7.38;86.77
77159;BME280;66129;45.890;13.714;2023-02-23T05:49:18;100947.91;;;7.41;87.18
77159;BME280;66129;45.890;13.714;2023-02-23T05:51:44;100957.28;;;7.42;87.13
77159;BME280;66129;45.890;13.714;2023-02-23T05:54:09;100914.31;;;7.29;86.74
77159;BME280;66129;45.890;13.714;2023-02-23T05:56:35;100927.44;;;7.39;86.37
77159;BME280;66129;45.890;13.714;2023-02-23T05:59:04;100976.78;;;7.65;86.04
77159;BME280;66129;45.890;13.714;2023-02-23T06:01:33;100939.44;;;7.42;86.50
77159;BME280;66129;45.890;13.714;2023-02-23T06:04:04;100954.50;;;7.59;86.27
77159;BME280;66129;45.890;13.714;2023-02-23T06:06:30;100958.81;;;7.62;86.14
77159;BME280;66129;45.890;13.714;2023-02-23T06:08:58;100931.13;;;7.47;85.48
77159;BME280;66129;45.890;13.714;2023-02-23T06:11:23;100955.81;;;7.48;86.42
77159;BME280;66129;45.890;13.714;2023-02-23T06:13:52;100952.13;;;7.40;86.73
77159;BME280;66129;45.890;13.714;2023-02-23T06:16:18;100948.13;;;7.47;86.46
77159;BME280;66129;45.890;13.714;2023-02-23T06:18:43;100967.97;;;7.55;86.41
77159;BME280;66129;45.890;13.714;2023-02-23T06:21:09;100977.16;;;7.52;85.94
77159;BME280;66129;45.890;13.714;2023-02-23T06:23:34;100901.31;;;7.21;85.92
77159;BME280;66129;45.890;13.714;2023-02-23T06:26:09;100961.88;;;7.52;85.97
77159;BME280;66129;45.890;13.714;2023-02-23T06:28:35;100979.34;;;7.65;86.27
77159;BME280;66129;45.890;13.714;2023-02-23T06:31:01;100989.50;;;7.63;86.34
77159;BME280;66129;45.890;13.714;2023-02-23T06:33:27;101014.38;;;7.93;85.31
77159;BME280;66129;45.890;13.714;2023-02-23T06:35:52;100944.84;;;7.51;85.24
77159;BME280;66129;45.890;13.714;2023-02-23T06:38:19;100991.41;;;7.68;86.59
77159;BME280;66129;45.890;13.714;2023-02-23T06:40:44;100948.00;;;7.44;85.98
77159;BME280;66129;45.890;13.714;2023-02-23T06:43:13;100927.16;;;7.32;85.79
77159;BME280;66129;45.890;13.714;2023-02-23T06:45:41;100982.59;;;7.61;85.76
77159;BME280;66129;45.890;13.714;2023-02-23T06:48:09;100945.28;;;7.39;86.31
77159;BME280;66129;45.890;13.714;2023-02-23T06:50:38;101009.56;;;7.77;86.16
77159;BME280;66129;45.890;13.714;2023-02-23T06:53:25;100946.38;;;7.46;85.28
77159;BME280;66129;45.890;13.714;2023-02-23T06:56:13;101007.63;;;7.95;84.34
77159;BME280;66129;45.890;13.714;2023-02-23T06:59:12;101049.22;;;8.16;84.83
77159;BME280;66129;45.890;13.714;2023-02-23T07:05:30;101013.00;;;8.03;84.43
77159;BME280;66129;45.890;13.714;2023-02-23T07:07:56;100966.19;;;7.77;83.44
77159;BME280;66129;45.890;13.714;2023-02-23T07:10:22;100968.22;;;7.87;83.40
77159;BME280;66129;45.890;13.714;2023-02-23T07:12:52;100953.72;;;7.86;83.50
77159;BME280;66129;45.890;13.714;2023-02-23T07:15:24;101055.13;;;8.40;84.42
77159;BME280;66129;45.890;13.714;2023-02-23T07:17:50;100954.53;;;7.85;84.37
77159;BME280;66129;45.890;13.714;2023-02-23T07:20:17;101020.53;;;8.23;83.89
77159;BME280;66129;45.890;13.714;2023-02-23T07:22:44;101036.06;;;8.29;84.60
77159;BME280;66129;45.890;13.714;2023-02-23T07:25:12;100973.63;;;7.96;84.25
77159;BME280;66129;45.890;13.714;2023-02-23T07:27:38;100989.19;;;8.04;84.04
77159;BME280;66129;45.890;13.714;2023-02-23T07:30:03;101010.22;;;8.20;84.10
77159;BME280;66129;45.890;13.714;2023-02-23T07:32:29;101020.66;;;8.28;84.20
77159;BME280;66129;45.890;13.714;2023-02-23T07:34:55;100970.31;;;7.99;83.94
77159;BME280;66129;45.890;13.714;2023-02-23T07:37:33;100966.13;;;8.01;84.30
77159;BME280;66129;45.890;13.714;2023-02-23T07:39:58;100998.31;;;8.21;84.27
77159;BME280;66129;45.890;13.714;2023-02-23T07:43:12;100978.13;;;8.03;83.97
77159;BME280;66129;45.890;13.714;2023-02-23T07:45:38;101005.03;;;8.44;82.50
77159;BME280;66129;45.890;13.714;2023-02-23T07:54:38;101017.72;;;8.42;84.22
77159;BME280;66129;45.890;13.714;2023-02-23T07:57:03;101015.19;;;8.42;83.56
77159;BME280;66129;45.890;13.714;2023-02-23T07:59:34;100961.66;;;8.19;83.38
77159;BME280;66129;45.890;13.714;2023-02-23T08:02:00;100961.47;;;8.14;83.23
77159;BME280;66129;45.890;13.714;2023-02-23T08:04:25;100971.88;;;8.19;83.01
77159;BME280;66129;45.890;13.714;2023-02-23T08:06:54;100973.78;;;8.26;83.20
77159;BME280;66129;45.890;13.714;2023-02-23T08:09:19;100974.88;;;8.32;82.76
77159;BME280;66129;45.890;13.714;2023-02-23T08:11:45;100982.75;;;8.40;82.34
77159;BME280;66129;45.890;13.714;2023-02-23T08:14:28;101027.47;;;8.80;81.99
77159;BME280;66129;45.890;13.714;2023-02-23T08:16:54;101065.22;;;9.16;81.04
77159;BME280;66129;45.890;13.714;2023-02-23T08:19:36;101059.69;;;9.31;79.04
77159;BME280;66129;45.890;13.714;2023-02-23T08:22:17;100987.78;;;8.92;78.13
77159;BME280;66129;45.890;13.714;2023-02-23T08:25:14;100990.50;;;8.97;78.39
77159;BME280;66129;45.890;13.714;2023-02-23T08:27:40;101025.28;;;9.20;77.78
77159;BME280;66129;45.890;13.714;2023-02-23T08:33:46;101068.84;;;9.52;77.94
77159;BME280;66129;45.890;13.714;2023-02-23T08:36:14;100978.75;;;9.03;78.15
77159;BME280;66129;45.890;13.714;2023-02-23T08:38:43;101013.50;;;9.25;78.11
77159;BME280;66129;45.890;13.714;2023-02-23T08:41:08;101035.16;;;9.37;78.31
77159;BME280;66129;45.890;13.714;2023-02-23T08:43:36;101031.63;;;9.34;78.49
77159;BME280;66129;45.890;13.714;2023-02-23T08:46:11;101039.38;;;9.35;78.44
77159;BME280;66129;45.890;13.714;2023-02-23T08:48:47;100982.53;;;9.16;77.38
77159;BME280;66129;45.890;13.714;2023-02-23T08:51:15;101040.03;;;9.58;77.37
77159;BME280;66129;45.890;13.714;2023-02-23T08:53:46;101001.28;;;9.44;76.79
77159;BME280;66129;45.890;13.714;2023-02-23T08:56:11;101032.00;;;9.77;76.14
77159;BME280;66129;45.890;13.714;2023-02-23T08:58:40;101036.34;;;9.79;76.28
77159;BME280;66129;45.890;13.714;2023-02-23T09:01:12;101007.81;;;9.66;76.11
77159;BME280;66129;45.890;13.714;2023-02-23T09:03:42;101042.78;;;9.96;75.53
77159;BME280;66129;45.890;13.714;2023-02-23T09:06:26;101033.91;;;9.84;76.37
77159;BME280;66129;45.890;13.714;2023-02-23T09:08:54;101043.34;;;9.85;75.80
77159;BME280;66129;45.890;13.714;2023-02-23T09:11:21;101030.44;;;9.82;75.84
77159;BME280;66129;45.890;13.714;2023-02-23T09:17:01;100988.44;;;9.75;74.73
77159;BME280;66129;45.890;13.714;2023-02-23T09:19:29;101049.78;;;10.01;74.95
77159;BME280;66129;45.890;13.714;2023-02-23T09:22:03;101049.94;;;10.07;74.59
77159;BME280;66129;45.890;13.714;2023-02-23T09:24:32;101075.28;;;10.29;74.89
77159;BME280;66129;45.890;13.714;2023-02-23T09:27:00;101009.31;;;9.89;74.74
77159;BME280;66129;45.890;13.714;2023-02-23T09:29:35;101007.69;;;9.92;74.48
77159;BME280;66129;45.890;13.714;2023-02-23T09:32:04;101046.84;;;10.19;74.64
77159;BME280;66129;45.890;13.714;2023-02-23T09:34:30;101000.09;;;9.96;74.53
77159;BME280;66129;45.890;13.714;2023-02-23T09:36:55;101044.44;;;10.25;73.93
77159;BME280;66129;45.890;13.714;2023-02-23T09:39:21;101027.91;;;10.14;73.71
77159;BME280;66129;45.890;13.714;2023-02-23T09:50:16;101032.25;;;10.16;73.50
77159;BME280;66129;45.890;13.714;2023-02-23T09:52:50;101090.44;;;10.54;73.81
77159;BME280;66129;45.890;13.714;2023-02-23T09:55:21;101015.94;;;10.13;73.79
77159;BME280;66129;45.890;13.714;2023-02-23T09:57:57;101009.06;;;10.10;73.37
77159;BME280;66129;45.890;13.714;2023-02-23T10:00:30;101061.88;;;10.39;73.33
77159;BME280;66129;45.890;13.714;2023-02-23T10:06:10;101100.13;;;10.66;73.72
77159;BME280;66129;45.890;13.714;2023-02-23T10:09:00;101062.06;;;10.47;74.04
77159;BME280;66129;45.890;13.714;2023-02-23T10:11:39;101050.97;;;10.48;72.79
77159;BME280;66129;45.890;13.714;2023-02-23T10:22:49;101070.41;;;10.74;73.45
77159;BME280;66129;45.890;13.714;2023-02-23T10:25:30;101018.66;;;10.54;72.73
77159;BME280;66129;45.890;13.714;2023-02-23T10:28:00;101047.25;;;10.71;72.40
77159;BME280;66129;45.890;13.714;2023-02-23T10:30:30;101066.56;;;10.92;71.84
77159;BME280;66129;45.890;13.714;2023-02-23T10:35:32;101008.06;;;10.39;72.91
77159;BME280;66129;45.890;13.714;2023-02-23T10:38:02;101047.97;;;10.64;73.20
77159;BME280;66129;45.890;13.714;2023-02-23T10:40:31;101066.34;;;10.83;72.71
77159;BME280;66129;45.890;13.714;2023-02-23T10:43:03;101064.84;;;10.91;72.42
77159;BME280;66129;45.890;13.714;2023-02-23T10:45:38;101007.81;;;10.66;72.29
77159;BME280;66129;45.890;13.714;2023-02-23T10:48:17;101030.38;;;10.80;72.02
77159;BME280;66129;45.890;13.714;2023-02-23T10:50:46;101018.53;;;10.85;71.50
77159;BME280;66129;45.890;13.714;2023-02-23T10:56:27;101009.34;;;10.95;71.46
77159;BME280;66129;45.890;13.714;2023-02-23T10:59:01;101054.56;;;11.28;70.82
77159;BME280;66129;45.890;13.714;2023-02-23T11:02:21;101018.13;;;11.04;70.91
77159;BME280;66129;45.890;13.714;2023-02-23T11:08:40;101010.97;;;10.91;71.16
77159;BME280;66129;45.890;13.714;2023-02-23T11:11:27;101052.75;;;11.22;70.34
77159;BME280;66129;45.890;13.714;2023-02-23T11:13:56;101002.38;;;10.89;70.74
77159;BME280;66129;45.890;13.714;2023-02-23T11:16:24;101056.91;;;11.19;70.99
77159;BME280;66129;45.890;13.714;2023-02-23T11:18:54;100990.38;;;10.87;70.78
77159;BME280;66129;45.890;13.714;2023-02-23T11:21:26;100993.16;;;10.97;70.20
77159;BME280;66129;45.890;13.714;2023-02-23T11:23:56;100989.63;;;10.91;70.77
77159;BME280;66129;45.890;13.714;2023-02-23T11:26:35;100987.00;;;10.89;71.15
77159;BME280;66129;45.890;13.714;2023-02-23T11:29:16;100986.09;;;10.87;72.49
77159;BME280;66129;45.890;13.714;2023-02-23T11:31:51;100995.53;;;10.88;73.45
77159;BME280;66129;45.890;13.714;2023-02-23T11:34:31;100988.53;;;10.81;73.31
77159;BME280;66129;45.890;13.714;2023-02-23T11:37:09;101019.72;;;10.99;74.63
77159;BME280;66129;45.890;13.714;2023-02-23T11:42:22;101039.03;;;11.22;71.44
77159;BME280;66129;45.890;13.714;2023-02-23T11:44:52;101009.84;;;11.17;71.07
77159;BME280;66129;45.890;13.714;2023-02-23T11:47:26;101068.81;;;11.54;70.43
77159;BME280;66129;45.890;13.714;2023-02-23T11:49:53;100996.19;;;11.18;70.46
77159;BME280;66129;45.890;13.714;2023-02-23T11:52:24;100988.63;;;11.25;70.19
77159;BME280;66129;45.890;13.714;2023-02-23T11:55:04;100985.28;;;11.28;70.84
77159;BME280;66129;45.890;13.714;2023-02-23T11:57:33;100990.16;;;11.57;70.68
77159;BME280;66129;45.890;13.714;2023-02-23T12:00:07;100981.53;;;11.54;71.46
77159;BME280;66129;45.890;13.714;2023-02-23T12:02:52;101011.06;;;11.77;71.09
77159;BME280;66129;45.890;13.714;2023-02-23T12:05:29;101012.75;;;11.75;71.33
77159;BME280;66129;45.890;13.714;2023-02-23T12:08:09;100972.16;;;11.56;71.39
77159;BME280;66129;45.890;13.714;2023-02-23T12:10:50;101013.66;;;11.77;72.05
77159;BME280;66129;45.890;13.714;2023-02-23T12:16:17;101040.59;;;12.00;71.93
77159;BME280;66129;45.890;13.714;2023-02-23T12:18:59;100967.03;;;11.57;71.03
77159;BME280;66129;45.890;13.714;2023-02-23T12:21:31;101050.88;;;12.00;70.12
77159;BME280;66129;45.890;13.714;2023-02-23T12:27:03;101040.84;;;12.12;70.70
77159;BME280;66129;45.890;13.714;2023-02-23T12:29:43;101016.50;;;11.92;69.36
77159;BME280;66129;45.890;13.714;2023-02-23T12:32:21;100985.91;;;11.59;69.42
77159;BME280;66129;45.890;13.714;2023-02-23T12:37:36;100959.63;;;11.29;69.86
77159;BME280;66129;45.890;13.714;2023-02-23T12:45:05;100956.41;;;11.38;69.69
77159;BME280;66129;45.890;13.714;2023-02-23T12:47:45;101026.41;;;11.72;69.62
77159;BME280;66129;45.890;13.714;2023-02-23T12:50:24;100985.41;;;11.34;70.63
77159;BME280;66129;45.890;13.714;2023-02-23T12:52:59;101005.75;;;11.25;70.12
77159;BME280;66129;45.890;13.714;2023-02-23T12:55:38;101030.84;;;11.38;69.78
77159;BME280;66129;45.890;13.714;2023-02-23T12:58:22;100984.16;;;11.15;70.81
77159;BME280;66129;45.890;13.714;2023-02-23T13:00:57;100986.78;;;11.18;70.01
77159;BME280;66129;45.890;13.714;2023-02-23T13:03:32;101033.56;;;11.47;71.70
77159;BME280;66129;45.890;13.714;2023-02-23T13:06:19;101035.28;;;11.48;71.29
77159;BME280;66129;45.890;13.714;2023-02-23T13:14:45;101019.22;;;11.56;70.10
77159;BME280;66129;45.890;13.714;2023-02-23T13:17:25;101026.69;;;11.46;70.72
77159;BME280;66129;45.890;13.714;2023-02-23T13:19:55;100997.34;;;11.32;70.57
77159;BME280;66129;45.890;13.714;2023-02-23T13:22:34;101021.44;;;11.40;71.27
77159;BME280;66129;45.890;13.714;2023-02-23T13:25:06;101027.38;;;11.36;71.02
77159;BME280;66129;45.890;13.714;2023-02-23T13:27:42;101038.41;;;11.32;71.46
77159;BME280;66129;45.890;13.714;2023-02-23T13:30:12;100995.31;;;11.17;72.00
77159;BME280;66129;45.890;13.714;2023-02-23T13:32:37;100954.47;;;10.87;71.14
77159;BME280;66129;45.890;13.714;2023-02-23T13:35:06;100994.38;;;11.14;72.32
77159;BME280;66129;45.890;13.714;2023-02-23T13:38:06;101017.69;;;11.24;72.25
77159;BME280;66129;45.890;13.714;2023-02-23T13:40:45;101016.00;;;11.25;71.94
77159;BME280;66129;45.890;13.714;2023-02-23T13:49:26;101021.13;;;11.23;72.95
77159;BME280;66129;45.890;13.714;2023-02-23T13:52:01;100992.53;;;11.07;73.78
77159;BME280;66129;45.890;13.714;2023-02-23T13:54:36;100998.66;;;11.13;74.75
77159;BME280;66129;45.890;13.714;2023-02-23T13:57:03;100996.88;;;11.11;74.97
77159;BME280;66129;45.890;13.714;2023-02-23T13:59:42;100957.22;;;10.96;75.29
77159;BME280;66129;45.890;13.714;2023-02-23T14:02:24;101022.22;;;11.36;74.10
77159;BME280;66129;45.890;13.714;2023-02-23T14:05:13;100943.28;;;10.83;74.08
77159;BME280;66129;45.890;13.714;2023-02-23T14:07:43;100978.00;;;11.07;74.42
77159;BME280;66129;45.890;13.714;2023-02-23T14:10:22;101030.88;;;11.41;75.28
77159;BME280;66129;45.890;13.714;2023-02-23T14:15:44;101005.75;;;11.25;75.41
77159;BME280;66129;45.890;13.714;2023-02-23T14:20:51;101026.59;;;11.41;76.68
77159;BME280;66129;45.890;13.714;2023-02-23T14:26:07;101026.47;;;11.35;76.33
77159;BME280;66129;45.890;13.714;2023-02-23T14:28:40;100979.47;;;10.97;76.53
77159;BME280;66129;45.890;13.714;2023-02-23T14:44:12;101027.72;;;11.14;77.04
77159;BME280;66129;45.890;13.714;2023-02-23T14:46:48;101027.63;;;11.09;78.25
77159;BME280;66129;45.890;13.714;2023-02-23T14:49:21;101011.13;;;10.99;78.54
77159;BME280;66129;45.890;13.714;2023-02-23T14:51:50;100998.09;;;10.88;78.11
77159;BME280;66129;45.890;13.714;2023-02-23T15:00:56;101004.94;;;10.88;78.23
77159;BME280;66129;45.890;13.714;2023-02-23T15:03:22;100958.06;;;10.56;78.86
77159;BME280;66129;45.890;13.714;2023-02-23T15:05:56;101007.38;;;10.83;78.55
77159;BME280;66129;45.890;13.714;2023-02-23T15:08:43;101008.22;;;10.82;78.91
77159;BME280;66129;45.890;13.714;2023-02-23T15:11:23;101007.28;;;10.79;78.82
77159;BME280;66129;45.890;13.714;2023-02-23T15:13:52;101004.72;;;10.79;79.29
77159;BME280;66129;45.890;13.714;2023-02-23T15:19:25;101017.56;;;10.80;79.08
77159;BME280;66129;45.890;13.714;2023-02-23T15:22:02;101042.81;;;10.99;79.43
77159;BME280;66129;45.890;13.714;2023-02-23T15:24:51;100949.34;;;10.48;78.71
77159;BME280;66129;45.890;13.714;2023-02-23T15:34:14;100953.69;;;10.52;79.32
77159;BME280;66129;45.890;13.714;2023-02-23T15:36:43;100960.53;;;10.53;78.90
77159;BME280;66129;45.890;13.714;2023-02-23T15:39:15;101042.13;;;11.06;79.12